Latest Weather Observations for Lake Grace

IDW60801

Issued at 8:33 am WST Tuesday 22 September 2020 (issued every 10 minutes, with the page automatically refreshed every 10 minutes)

About weather observations | Map of weather stations | Latest weather observations for WA | Other Formats
Station Details ID: 010911 Name: LAKE GRACE Lat: -33.10 Lon: 118.46 Height: 286.0 m
Data from the previous 72 hours. | See also: Recent months at Lake Grace
Date/Time
WST
Temp
°C
App
Temp
°C
Dew
Point
°C
Rel
Hum
%
Delta-T
°C
Wind Press
QNH
hPa
Press
MSL
hPa
Rain since
9am
mm
Dir  Spd
km/h
Gust
km/h
Spd
kts
Gust
kts
22/08:30am 12.8 9.6 6.8 67 2.9 SW 13 17 7 9 1023.7 1023.7 0.0
22/08:00am 12.0 9.0 7.5 74 2.2 SSW 13 19 7 10 1023.5 1023.5 0.0
22/07:30am 11.1 8.2 8.1 82 1.5 WSW 13 22 7 12 1023.1 1023.1 0.0
22/07:00am 11.0 9.0 8.8 86 1.1 SSW 9 13 5 7 1022.5 1022.4 0.0
22/06:30am 10.7 9.2 9.1 90 0.8 SSE 7 9 4 5 1022.2 1022.1 0.0
22/06:00am 10.2 9.5 8.6 90 0.8 SSE 2 6 1 3 1021.7 1021.6 0.0
22/05:30am 10.3 8.7 8.7 90 0.8 SW 7 11 4 6 1021.3 1021.2 0.0
22/05:00am 10.4 8.5 9.0 91 0.7 WSW 9 13 5 7 1021.0 1020.9 0.0
22/04:30am 10.7 8.5 9.3 91 0.7 SW 11 17 6 9 1020.9 1020.8 0.0
22/04:00am 10.9 8.9 8.8 87 1.1 W 9 13 5 7 1020.7 1020.6 0.0
22/03:30am 10.9 8.9 8.8 87 1.1 WSW 9 13 5 7 1020.6 1020.5 0.0
22/03:00am 10.7 8.3 8.5 86 1.1 WNW 11 17 6 9 1020.6 1020.5 0.0
22/02:30am 10.6 7.7 8.2 85 1.2 W 13 19 7 10 1020.4 1020.4 0.0
22/02:00am 10.6 8.0 7.8 83 1.4 WNW 11 17 6 9 1020.4 1020.4 0.0
22/01:30am 10.5 7.4 7.4 81 1.5 WNW 13 19 7 10 1020.4 1020.4 0.0
22/01:00am 10.0 7.2 6.9 81 1.5 NW 11 17 6 9 1020.4 1020.4 0.0
22/12:30am 9.9 6.6 6.6 80 1.6 NW 13 17 7 9 1020.3 1020.3 0.0
22/12:00am 9.5 6.5 6.2 80 1.5 NW 11 19 6 10 1020.6 1020.5 0.0
 
Date/Time
WST
Temp
°C
App
Temp
°C
Dew
Point
°C
Rel
Hum
%
Delta-T
°C
Wind Press
QNH
hPa
Press
MSL
hPa
Rain since
9am
mm
Dir  Spd
km/h
Gust
km/h
Spd
kts
Gust
kts
21/11:30pm 9.5 6.9 6.0 79 1.6 NW 9 13 5 7 1020.9 1020.8 0.0
21/11:00pm 9.8 6.4 5.8 76 1.9 WNW 13 17 7 9 1020.9 1020.8 0.0
21/10:30pm 10.0 6.5 5.4 73 2.1 WNW 13 17 7 9 1021.1 1021.0 0.0
21/10:00pm 10.3 7.1 4.9 69 2.5 WNW 11 17 6 9 1021.1 1021.0 0.0
21/09:30pm 11.0 7.7 4.7 65 2.9 WNW 11 17 6 9 1021.3 1021.2 0.0
21/09:00pm 11.5 8.6 4.5 62 3.2 WNW 9 13 5 7 1021.3 1021.2 0.0
21/08:30pm 12.3 9.4 4.8 60 3.5 W 9 13 5 7 1021.2 1021.1 0.0
21/08:00pm 12.9 10.4 4.8 58 3.8 W 7 11 4 6 1021.0 1020.9 0.0
21/07:30pm 13.7 10.1 4.8 55 4.2 WSW 13 22 7 12 1020.9 1020.8 0.0
21/07:00pm 14.0 10.0 4.9 54 4.3 WSW 15 22 8 12 1020.7 1020.6 0.0
21/06:30pm 14.2 9.8 4.5 52 4.6 WSW 17 24 9 13 1020.4 1020.4 0.0
21/06:00pm 14.6 10.1 4.0 49 4.9 WSW 17 26 9 14 1020.3 1020.3 0.0
21/05:30pm 15.1 10.4 3.3 45 5.4 WSW 17 28 9 15 1020.0 1019.9 0.0
21/05:00pm 15.3 10.5 2.8 43 5.7 WSW 17 28 9 15 1019.9 1019.8 0.0
21/04:30pm 15.4 10.2 2.6 42 5.8 WSW 19 30 10 16 1019.7 1019.6 0.0
21/04:00pm 15.3 10.1 3.5 45 5.5 SW 20 32 11 17 1019.4 1019.3 0.0
21/03:30pm 15.8 10.7 3.3 43 5.8 WSW 19 32 10 17 1019.4 1019.3 0.0
21/03:00pm 15.3 10.3 3.5 45 5.5 WSW 19 28 10 15 1019.3 1019.2 0.0
21/02:30pm 15.6 10.6 3.7 45 5.6 WSW 19 28 10 15 1019.3 1019.2 0.0
21/02:00pm 15.4 10.1 2.9 43 5.7 WSW 20 32 11 17 1019.3 1019.2 0.0
21/01:30pm 16.2 11.1 3.3 42 6.0 WSW 19 37 10 20 1019.4 1019.3 0.0
21/01:00pm 15.2 10.5 3.0 44 5.6 WSW 17 32 9 17 1019.5 1019.4 0.0
21/12:30pm 14.4 9.7 3.2 47 5.1 WSW 17 32 9 17 1019.6 1019.5 0.0
21/12:00pm 13.6 8.5 3.1 49 4.7 WSW 19 30 10 16 1019.8 1019.7 0.0
21/11:30am 13.5 8.4 4.1 53 4.4 WSW 20 33 11 18 1020.0 1019.9 0.0
21/11:00am 13.2 7.9 3.0 50 4.6 WSW 20 32 11 17 1020.0 1019.9 0.0
21/10:30am 13.4 7.8 3.2 50 4.6 SW 22 32 12 17 1020.1 1020.1 0.0
21/10:00am 12.9 7.9 4.6 57 3.9 SW 20 33 11 18 1020.2 1020.2 0.0
21/09:30am 12.2 6.4 4.2 58 3.7 SW 24 43 13 23 1020.1 1020.1 0.0
21/09:00am 11.9 6.2 4.9 62 3.2 SW 24 39 13 21 1020.1 1020.1 0.0
21/08:30am 11.0 6.1 5.3 68 2.7 WSW 20 32 11 17 1020.0 1019.9 0.0
21/08:00am 9.9 4.7 5.5 74 2.0 WSW 22 30 12 16 1020.0 1019.9 0.0
21/07:30am 9.2 4.6 5.8 79 1.6 WSW 19 30 10 16 1019.8 1019.7 0.0
21/07:00am 8.4 4.3 6.0 85 1.1 WSW 17 28 9 15 1019.4 1019.3 0.0
21/06:30am 8.2 4.6 6.8 91 0.7 WSW 15 24 8 13 1019.0 1018.9 0.0
21/06:00am 8.9 4.4 6.0 82 1.3 WSW 19 32 10 17 1018.7 1018.6 0.0
21/05:30am 8.8 4.2 6.3 84 1.2 WSW 20 35 11 19 1018.3 1018.2 0.0
21/05:00am 9.0 4.9 6.1 82 1.3 WSW 17 32 9 17 1018.0 1017.9 0.0
21/04:30am 9.2 4.1 5.9 80 1.5 WSW 22 33 12 18 1017.7 1017.6 0.0
21/04:00am 9.4 4.6 5.6 77 1.8 WSW 20 30 11 16 1017.6 1017.5 0.0
21/03:30am 9.7 4.5 5.7 76 1.9 WSW 22 37 12 20 1017.5 1017.4 0.0
21/03:00am 9.6 5.0 5.8 77 1.8 WSW 19 28 10 15 1017.3 1017.2 0.0
21/02:30am 9.7 5.0 6.1 78 1.7 WSW 20 33 11 18 1017.4 1017.3 0.0
21/02:00am 9.7 5.6 6.1 78 1.7 WSW 17 30 9 16 1017.2 1017.1 0.0
21/01:30am 9.9 5.2 6.1 77 1.8 WSW 20 33 11 18 1017.2 1017.1 0.0
21/01:00am 9.7 5.0 6.1 78 1.7 WSW 20 33 11 18 1017.0 1016.8 0.0
21/12:30am 9.8 4.7 6.2 78 1.7 WSW 22 39 12 21 1017.0 1016.8 0.0
21/12:00am 9.8 5.3 6.2 78 1.7 W 19 33 10 18 1017.1 1016.9 0.0
 
Date/Time
WST
Temp
°C
App
Temp
°C
Dew
Point
°C
Rel
Hum
%
Delta-T
°C
Wind Press
QNH
hPa
Press
MSL
hPa
Rain since
9am
mm
Dir  Spd
km/h
Gust
km/h
Spd
kts
Gust
kts
20/11:30pm 9.8 5.3 6.2 78 1.7 W 19 28 10 15 1016.9 1016.7 0.0
20/11:00pm 9.9 5.4 5.9 76 1.9 W 19 33 10 18 1017.0 1016.8 0.0
20/10:30pm 10.0 5.2 5.8 75 2.0 W 20 28 11 15 1017.0 1016.8 0.0
20/10:00pm 10.3 5.5 5.7 73 2.1 W 20 32 11 17 1017.1 1016.9 0.0
20/09:30pm 10.8 5.6 5.3 69 2.6 W 22 37 12 20 1017.0 1016.8 0.0
20/09:00pm 10.9 5.3 5.2 68 2.6 W 24 39 13 21 1017.0 1016.8 0.0
20/08:30pm 11.0 6.1 4.9 66 2.8 W 20 39 11 21 1016.5 1016.4 0.0
20/08:00pm 10.9 4.8 5.0 67 2.7 W 26 46 14 25 1016.3 1016.2 0.0
20/07:30pm 11.5 5.6 4.0 60 3.4 W 24 35 13 19 1015.6 1015.5 0.0
20/07:00pm 11.9 5.3 4.2 59 3.5 W 28 46 15 25 1015.1 1015.0 0.0
20/06:51pm 11.9 5.3 4.2 59 3.5 WSW 28 52 15 28 1015.1 1015.0 0.0
20/06:30pm 12.2 5.5 3.9 57 3.8 W 28 44 15 24 1014.8 1014.7 0.0
20/06:01pm 12.4 4.9 3.4 54 4.1 WSW 32 50 17 27 1014.3 1014.2 0.0
20/06:00pm 12.4 4.7 3.4 54 4.1 WSW 33 50 18 27 1014.3 1014.2 0.0
20/05:37pm 12.9 5.3 2.7 50 4.6 WSW 32 50 17 27 1014.0 1013.8 0.0
20/05:30pm 13.1 6.6 2.6 49 4.7 W 26 44 14 24 1013.8 1013.6 0.0
20/05:00pm 13.4 5.2 2.6 48 4.8 W 35 57 19 31 1013.3 1013.1 0.0
20/04:30pm 13.7 6.0 2.3 46 5.1 WSW 32 52 17 28 1012.8 1012.7 0.0
20/04:02pm 14.3 6.1 2.9 46 5.2 WSW 35 54 19 29 1012.2 1012.1 0.0
20/04:00pm 14.0 5.4 2.6 46 5.1 WSW 37 54 20 29 1012.1 1012.0 0.0
20/03:30pm 13.8 5.4 1.8 44 5.3 W 35 57 19 31 1011.7 1011.6 0.0
20/03:00pm 14.2 5.0 1.2 41 5.7 W 39 59 21 32 1011.2 1011.1 0.0
20/02:30pm 14.6 5.4 1.2 40 5.9 W 39 63 21 34 1011.2 1011.1 0.0
20/02:00pm 14.5 4.7 0.0 37 6.2 W 41 63 22 34 1010.8 1010.6 0.0
20/01:30pm 14.7 5.7 0.2 37 6.2 W 37 57 20 31 1010.5 1010.3 0.0
20/01:00pm 13.8 4.5 0.8 41 5.6 W 39 59 21 32 1010.6 1010.4 0.0
20/12:30pm 14.5 5.8 2.1 43 5.5 W 37 57 20 31 1010.7 1010.5 0.0
20/12:00pm 13.9 5.3 0.5 40 5.8 W 35 54 19 29 1010.6 1010.4 0.0
20/11:30am 12.2 3.7 1.2 47 4.7 W 35 56 19 30 1010.9 1010.7 0.0
20/11:00am 12.9 5.0 1.0 44 5.1 WSW 32 54 17 29 1010.6 1010.4 0.0
20/10:30am 12.3 3.8 1.0 46 4.8 W 35 56 19 30 1010.5 1010.3 0.0
20/10:02am 11.6 3.7 1.3 49 4.4 W 32 50 17 27 1010.4 1010.2 0.0
20/10:00am 11.9 4.0 1.3 48 4.6 W 32 46 17 25 1010.4 1010.2 0.0
20/09:30am 11.4 4.3 1.6 51 4.2 W 28 46 15 25 1010.5 1010.3 0.0
20/09:00am 10.4 3.3 1.5 54 3.8 WSW 28 46 15 25 1010.7 1010.5 0.0
20/08:42am 9.9 2.9 1.8 57 3.4 W 28 50 15 27 1010.5 1010.3 0.0
20/08:30am 9.5 2.9 2.1 60 3.2 W 26 43 14 23 1010.5 1010.3 0.0
20/08:00am 8.7 2.9 2.3 64 2.7 W 22 39 12 21 1010.4 1010.2 0.0
20/07:30am 7.5 1.4 2.6 71 2.1 WNW 24 39 13 21 1010.1 1009.9 0.0
20/07:00am 6.3 0.6 2.6 77 1.6 NW 22 32 12 17 1009.7 1009.5 0.0
20/06:30am 5.4 -0.4 2.1 79 1.4 NW 22 32 12 17 1009.3 1009.2 0.0
20/06:00am 5.2 -0.7 1.9 79 1.3 WNW 22 32 12 17 1009.1 1009.0 0.0
20/05:30am 5.2 -0.3 1.9 79 1.3 WNW 20 32 11 17 1008.9 1008.8 0.0
20/05:00am 5.2 -0.7 2.0 80 1.3 WNW 22 33 12 18 1008.5 1008.4 0.0
20/04:30am 5.2 -0.7 2.0 80 1.3 WNW 22 33 12 18 1008.6 1008.5 0.0
20/04:00am 5.3 -0.9 2.0 79 1.4 WNW 24 35 13 19 1008.5 1008.4 0.0
20/03:30am 5.4 -0.5 1.9 78 1.4 WNW 22 32 12 17 1008.3 1008.2 0.0
20/03:00am 5.3 -0.9 2.0 79 1.4 WNW 24 37 13 20 1008.3 1008.2 0.0
20/02:30am 5.2 -0.2 2.2 81 1.2 WNW 20 32 11 17 1008.4 1008.3 0.0
20/02:00am 5.2 -1.0 2.0 80 1.3 WNW 24 32 13 17 1008.5 1008.4 0.0
20/01:30am 5.2 -1.0 2.0 80 1.3 WNW 24 35 13 19 1008.8 1008.7 0.0
20/01:00am 5.4 -0.8 2.1 79 1.4 WNW 24 32 13 17 1009.1 1009.0 0.0
20/12:30am 5.6 -0.6 2.3 79 1.4 WNW 24 32 13 17 1009.1 1009.0 0.0
20/12:00am 5.8 0.4 2.6 80 1.3 WNW 20 32 11 17 1009.1 1009.0 0.0
 
Date/Time
WST
Temp
°C
App
Temp
°C
Dew
Point
°C
Rel
Hum
%
Delta-T
°C
Wind Press
QNH
hPa
Press
MSL
hPa
Rain since
9am
mm
Dir  Spd
km/h
Gust
km/h
Spd
kts
Gust
kts
19/11:30pm 5.9 0.2 2.9 81 1.3 WNW 22 32 12 17 1009.0 1008.9 0.0
19/11:00pm 6.2 0.5 2.8 79 1.4 WNW 22 33 12 18 1009.2 1009.1 0.0
19/10:30pm 6.4 0.7 2.9 78 1.5 WNW 22 30 12 16 1009.1 1009.0 0.0
19/10:00pm 6.3 0.6 2.6 77 1.6 WNW 22 32 12 17 1009.1 1009.0 0.0
19/09:30pm 6.7 0.6 2.8 76 1.6 WNW 24 37 13 20 1009.1 1009.0 0.0
19/09:00pm 7.4 1.4 3.1 74 1.8 WNW 24 32 13 17 1008.9 1008.8 0.0
19/08:30pm 8.4 2.0 3.1 69 2.3 W 26 39 14 21 1008.5 1008.4 0.0
19/08:18pm 8.7 1.9 2.9 67 2.5 W 28 46 15 25 1008.4 1008.3 0.0
19/08:00pm 8.9 2.4 2.9 66 2.6 W 26 43 14 23 1008.6 1008.5 0.0
19/07:30pm 9.1 2.7 3.1 66 2.6 W 26 35 14 19 1008.1 1007.9 0.0
19/07:00pm 9.7 3.3 3.0 63 2.9 W 26 44 14 24 1007.8 1007.6 0.0
19/06:30pm 10.3 3.3 2.2 57 3.5 W 28 48 15 26 1007.5 1007.3 0.0
19/06:00pm 11.0 2.3 2.1 54 3.9 W 37 56 20 30 1007.2 1007.0 0.0
19/05:30pm 11.9 3.7 2.9 54 4.0 W 35 56 19 30 1006.8 1006.6 0.0
19/05:07pm 12.9 5.5 3.8 54 4.2 WSW 32 52 17 28 1006.2 1006.0 0.0
19/05:00pm 14.2 6.4 3.1 47 5.1 W 33 50 18 27 1005.9 1005.7 0.0
19/04:30pm 15.7 7.3 1.8 39 6.2 WNW 35 56 19 30 1005.3 1005.2 0.0
19/04:00pm 15.4 8.4 4.2 47 5.3 W 30 48 16 26 1005.1 1004.9 0.0
19/03:30pm 16.0 8.1 2.4 40 6.2 WNW 33 52 18 28 1004.7 1004.5 0.0
19/03:09pm 16.6 8.0 2.6 39 6.4 W 37 56 20 30 1004.5 1004.3 0.0
19/03:00pm 17.3 9.1 2.5 37 6.9 W 35 52 19 28 1004.3 1004.1 0.0
19/02:38pm 17.8 9.4 1.7 34 7.3 W 35 54 19 29 1004.1 1003.9 0.0
19/02:30pm 17.4 8.7 1.8 35 7.1 WNW 37 54 20 29 1004.1 1003.9 0.0
19/02:07pm 18.5 10.8 0.2 29 8.1 W 30 52 16 28 1004.0 1003.8 0.0
19/02:00pm 18.0 10.1 1.1 32 7.7 W 32 46 17 25 1004.1 1003.9 0.0
19/01:44pm 18.0 9.9 -0.3 29 8.0 W 32 50 17 27 1004.1 1003.9 0.0
19/01:30pm 18.4 10.4 0.5 30 8.0 W 32 48 17 26 1004.0 1003.8 0.0
19/01:00pm 18.3 10.4 1.3 32 7.8 WNW 32 50 17 27 1004.2 1004.0 0.0
19/12:53pm 17.9 10.7 1.0 32 7.6 WNW 28 50 15 27 1004.3 1004.1 0.0
19/12:30pm 17.6 9.9 -0.2 30 7.8 W 30 46 16 25 1004.6 1004.4 0.0
19/12:19pm 18.0 10.8 0.6 31 7.8 W 28 46 15 25 1004.6 1004.4 0.0
19/12:00pm 16.0 9.5 4.7 47 5.4 W 28 46 15 25 1005.0 1004.8 0.0
19/11:30am 16.1 9.0 5.4 49 5.2 W 32 50 17 27 1005.0 1004.8 0.0
19/11:24am 16.1 9.6 4.8 47 5.4 W 28 50 15 27 1004.9 1004.7 0.0
19/11:00am 15.4 10.3 6.2 54 4.5 W 22 33 12 18 1005.4 1005.3 0.0
19/10:30am 15.2 10.3 7.0 58 4.1 W 22 33 12 18 1005.5 1005.4 0.0
19/10:00am 13.6 8.8 7.2 65 3.2 W 22 35 12 19 1005.9 1005.7 0.0
19/09:30am 14.2 10.3 9.6 74 2.4 W 20 30 11 16 1005.5 1005.4 0.0
19/09:00am 12.5 8.8 9.3 81 1.6 W 19 30 10 16 1005.7 1005.6 0.0

Other formats

Comma delimited format used in spreadsheet applications
http://www.bom.gov.au/fwo/IDW60801/IDW60801.95637.axf

JavaScript Object Notation format (JSON) in row-major order
http://www.bom.gov.au/fwo/IDW60801/IDW60801.95637.json

Data quality

Most of these data are generated automatically and are frequently updated. Quality checks on data are not normally performed. It is possible for incorrect values to appear. Refer to information at About Latest Weather Observations and please check the disclaimer before using these data.